createdAt,value
2023-04-18T00:00:28.967Z,9.4
2023-04-18T00:03:29.034Z,9.4
2023-04-18T00:06:28.954Z,9.4
2023-04-18T00:09:28.991Z,9.4
2023-04-18T00:12:28.966Z,9.4
2023-04-18T00:15:28.967Z,9.4
2023-04-18T00:18:28.974Z,9.4
2023-04-18T00:21:28.971Z,9.4
2023-04-18T00:24:28.977Z,9.4
2023-04-18T00:27:28.989Z,9.4
2023-04-18T00:30:28.973Z,9.4
2023-04-18T00:33:28.975Z,9.4
2023-04-18T00:36:28.975Z,9.3
2023-04-18T00:39:28.979Z,9.3
2023-04-18T00:42:28.983Z,9.3
2023-04-18T00:45:28.982Z,9.3
2023-04-18T00:48:28.984Z,9.3
2023-04-18T00:51:29.214Z,9.3
2023-04-18T00:54:28.992Z,9.3
2023-04-18T00:57:28.991Z,9.3
2023-04-18T01:00:28.990Z,9.3
2023-04-18T01:03:29.131Z,9.3
2023-04-18T01:06:28.997Z,9.3
2023-04-18T01:09:28.992Z,9.3
2023-04-18T01:12:29.007Z,9.3
2023-04-18T01:15:29.003Z,9.3
2023-04-18T01:18:29.002Z,9.3
2023-04-18T01:21:29.003Z,9.3
2023-04-18T01:24:29.008Z,9.3
2023-04-18T01:27:29.006Z,9.3
2023-04-18T01:30:29.028Z,9.3
2023-04-18T01:33:29.021Z,9.3
2023-04-18T01:36:29.012Z,9.3
2023-04-18T01:39:29.035Z,9.3
2023-04-18T01:42:29.033Z,9.3
2023-04-18T01:45:29.033Z,9.3
2023-04-18T01:48:29.035Z,9.3
2023-04-18T01:51:29.041Z,9.3
2023-04-18T01:54:29.043Z,9.3
2023-04-18T01:57:29.040Z,9.3
2023-04-18T02:00:29.098Z,9.3
2023-04-18T02:03:29.145Z,9.3
2023-04-18T02:06:29.061Z,9.3
2023-04-18T02:09:29.056Z,9.3
2023-04-18T02:12:29.063Z,9.3
2023-04-18T02:15:29.066Z,9.3
2023-04-18T02:18:29.066Z,9.3
2023-04-18T02:21:29.083Z,9.3
2023-04-18T02:24:29.071Z,9.3
2023-04-18T02:27:29.072Z,9.3
2023-04-18T02:30:29.079Z,9.2
2023-04-18T02:33:29.089Z,9.3
2023-04-18T02:36:29.091Z,9.3
2023-04-18T02:39:29.091Z,9.2
2023-04-18T02:42:29.094Z,9.2
2023-04-18T02:45:29.102Z,9.2
2023-04-18T02:48:29.119Z,9.2
2023-04-18T02:51:29.108Z,9.2
2023-04-18T02:54:29.108Z,9.2
2023-04-18T02:57:29.113Z,9.2
2023-04-18T03:00:29.115Z,9.2
2023-04-18T03:03:29.146Z,9.2
2023-04-18T03:06:29.113Z,9.2
2023-04-18T03:09:29.125Z,9.2
2023-04-18T03:12:29.121Z,9.2
2023-04-18T03:15:29.132Z,9.2
2023-04-18T03:18:29.140Z,9.2
2023-04-18T03:21:29.166Z,9.2
2023-04-18T03:24:29.142Z,9.2
2023-04-18T03:27:29.151Z,9.2
2023-04-18T03:30:29.152Z,9.2
2023-04-18T03:33:29.158Z,9.2
2023-04-18T03:36:29.150Z,9.1
2023-04-18T03:39:29.156Z,9.1
2023-04-18T03:42:29.158Z,9.1
2023-04-18T03:45:29.170Z,9.1
2023-04-18T03:48:29.166Z,9.1
2023-04-18T03:51:29.164Z,9.1
2023-04-18T03:54:29.177Z,9.1
2023-04-18T03:57:29.177Z,9.1
2023-04-18T04:00:29.181Z,9.1
2023-04-18T04:03:29.263Z,9.1
2023-04-18T04:06:29.184Z,9.1
2023-04-18T04:09:29.191Z,9.1
2023-04-18T04:12:29.205Z,9.1
2023-04-18T04:15:29.200Z,9.1
2023-04-18T04:18:29.196Z,9.1
2023-04-18T04:21:29.204Z,9.1
2023-04-18T04:24:29.204Z,9.1
2023-04-18T04:27:29.207Z,9.1
2023-04-18T04:30:29.218Z,9.1
2023-04-18T04:33:29.218Z,9.1
2023-04-18T04:36:29.214Z,9.1
2023-04-18T04:39:29.238Z,9.1
2023-04-18T04:42:29.220Z,9.1
2023-04-18T04:45:29.248Z,9.1
2023-04-18T04:48:29.223Z,9.1
2023-04-18T04:51:29.221Z,9.1
2023-04-18T04:54:29.234Z,9.1
2023-04-18T04:57:29.239Z,9.1
2023-04-18T05:00:29.239Z,9.1
2023-04-18T05:03:29.393Z,9.1
2023-04-18T05:06:29.247Z,9.1
2023-04-18T05:09:29.254Z,9.1
2023-04-18T05:12:29.262Z,9.1
2023-04-18T05:15:29.260Z,9.1
2023-04-18T05:18:29.265Z,9.1
2023-04-18T05:21:29.269Z,9.1
2023-04-18T05:24:29.279Z,9.1
2023-04-18T05:27:29.281Z,9.1
2023-04-18T05:30:29.299Z,9.1
2023-04-18T05:33:29.297Z,9.1
2023-04-18T05:36:29.298Z,9.1
2023-04-18T05:39:29.308Z,9
2023-04-18T05:42:29.314Z,9
2023-04-18T05:45:29.339Z,9
2023-04-18T05:48:29.323Z,9
2023-04-18T05:51:29.333Z,9
2023-04-18T05:54:29.341Z,9
2023-04-18T05:57:29.343Z,9
2023-04-18T06:00:29.364Z,9
2023-04-18T06:03:29.513Z,9
2023-04-18T06:06:29.355Z,9
2023-04-18T06:09:29.365Z,9
2023-04-18T06:12:29.377Z,9
2023-04-18T06:15:29.374Z,9
2023-04-18T06:18:29.369Z,9
2023-04-18T06:21:29.382Z,9
2023-04-18T06:24:30.786Z,9
2023-04-18T06:27:31.360Z,9
2023-04-18T06:30:29.408Z,9
2023-04-18T06:33:29.401Z,8.9
2023-04-18T06:36:29.409Z,8.9
2023-04-18T06:39:29.411Z,8.9
2023-04-18T06:42:29.416Z,8.9
2023-04-18T06:45:29.435Z,8.9
2023-04-18T06:48:29.429Z,8.9
2023-04-18T06:51:29.454Z,8.9
2023-04-18T06:54:29.443Z,8.9
2023-04-18T06:57:29.448Z,8.9
2023-04-18T07:00:29.519Z,8.9
2023-04-18T07:03:29.562Z,8.9
2023-04-18T07:06:29.472Z,8.9
2023-04-18T07:09:29.463Z,8.9
2023-04-18T07:12:29.487Z,8.9
2023-04-18T07:15:29.467Z,8.9
2023-04-18T07:18:37.094Z,8.9
2023-04-18T07:21:29.480Z,8.9
2023-04-18T07:24:29.488Z,8.9
2023-04-18T07:27:29.491Z,8.9
2023-04-18T07:30:29.489Z,8.9
2023-04-18T07:33:29.494Z,8.9
2023-04-18T07:36:29.499Z,8.9
2023-04-18T07:39:29.506Z,8.9
2023-04-18T07:42:29.509Z,8.9
2023-04-18T07:45:29.518Z,8.9
2023-04-18T07:48:29.526Z,8.9
2023-04-18T07:51:29.524Z,8.9
2023-04-18T07:54:29.529Z,8.9
2023-04-18T07:57:29.526Z,8.9
2023-04-18T08:00:29.539Z,8.9
2023-04-18T08:03:29.717Z,8.9
2023-04-18T08:06:29.544Z,8.9
2023-04-18T08:09:29.543Z,8.9
2023-04-18T08:12:29.548Z,8.9
2023-04-18T08:15:29.559Z,8.9
2023-04-18T08:18:29.559Z,8.9
2023-04-18T08:21:29.571Z,8.9
2023-04-18T08:24:29.579Z,8.9
2023-04-18T08:27:29.575Z,8.9
2023-04-18T08:30:29.578Z,8.9
2023-04-18T08:33:29.583Z,8.9
2023-04-18T08:36:29.587Z,8.9
2023-04-18T08:39:29.578Z,8.9
2023-04-18T08:42:29.593Z,8.9
2023-04-18T08:45:29.655Z,8.9
2023-04-18T08:48:29.599Z,8.9
2023-04-18T08:51:29.600Z,8.9
2023-04-18T08:54:29.595Z,8.9
2023-04-18T08:57:29.613Z,8.9
2023-04-18T09:00:29.620Z,8.9
2023-04-18T09:03:29.637Z,8.9
2023-04-18T09:06:29.625Z,8.9
2023-04-18T09:09:29.636Z,8.9
2023-04-18T09:12:29.652Z,8.9
2023-04-18T09:15:29.790Z,8.8
2023-04-18T09:18:29.647Z,8.8
2023-04-18T09:21:29.657Z,8.9
2023-04-18T09:24:29.663Z,8.8
2023-04-18T09:27:29.653Z,8.9
2023-04-18T09:30:29.666Z,8.9
2023-04-18T09:33:29.672Z,8.8
2023-04-18T09:36:29.683Z,8.9
2023-04-18T09:39:29.681Z,8.9
2023-04-18T09:42:29.779Z,8.8
2023-04-18T09:45:29.677Z,8.9
2023-04-18T09:48:29.688Z,8.9
2023-04-18T09:51:29.700Z,8.9
2023-04-18T09:54:29.693Z,8.9
2023-04-18T09:57:29.698Z,8.9
2023-04-18T10:00:29.695Z,8.9
2023-04-18T10:03:29.772Z,8.9
2023-04-18T10:06:29.709Z,8.9
2023-04-18T10:09:29.719Z,8.9
2023-04-18T10:12:29.718Z,8.8
2023-04-18T10:15:29.729Z,8.9
2023-04-18T10:18:29.776Z,8.9
2023-04-18T10:21:29.727Z,8.9
2023-04-18T10:24:29.721Z,8.9
2023-04-18T10:27:29.730Z,8.9
2023-04-18T10:30:29.727Z,8.9
2023-04-18T10:33:32.097Z,8.9
2023-04-18T10:36:29.744Z,8.9
2023-04-18T10:39:29.729Z,8.9
2023-04-18T10:42:29.754Z,8.9
2023-04-18T10:45:29.778Z,8.9
2023-04-18T10:48:29.773Z,8.9
2023-04-18T10:51:29.766Z,8.9
2023-04-18T10:54:29.749Z,8.9
2023-04-18T10:57:29.767Z,8.9
2023-04-18T11:00:29.761Z,8.9
2023-04-18T11:03:29.856Z,8.9
2023-04-18T11:06:29.784Z,8.9
2023-04-18T11:09:29.790Z,8.9
2023-04-18T11:12:29.787Z,8.9
2023-04-18T11:15:31.060Z,8.9
2023-04-18T11:18:29.795Z,8.9
2023-04-18T11:21:30.762Z,8.9
2023-04-18T11:24:29.802Z,8.9
2023-04-18T11:27:29.832Z,8.9
2023-04-18T11:30:29.792Z,8.9
2023-04-18T11:33:29.805Z,8.9
2023-04-18T11:36:29.798Z,8.9
2023-04-18T11:39:29.818Z,8.9
2023-04-18T11:42:29.820Z,8.9
2023-04-18T11:45:29.813Z,8.9
2023-04-18T11:48:29.829Z,8.9
2023-04-18T11:51:29.814Z,8.9
2023-04-18T11:54:29.827Z,8.9
2023-04-18T11:57:29.844Z,8.9
2023-04-18T12:00:29.827Z,8.9
2023-04-18T12:03:30.028Z,8.9
2023-04-18T12:06:29.916Z,8.9
2023-04-18T12:09:29.856Z,8.9
2023-04-18T12:12:29.854Z,8.9
2023-04-18T12:15:29.865Z,8.9
2023-04-18T12:18:29.924Z,8.9
2023-04-18T12:21:29.889Z,8.9
2023-04-18T12:24:29.893Z,8.9
2023-04-18T12:27:29.891Z,8.9
2023-04-18T12:30:29.895Z,9
2023-04-18T12:33:29.911Z,8.9
2023-04-18T12:36:29.912Z,8.9
2023-04-18T12:39:29.914Z,8.9
2023-04-18T12:42:29.921Z,8.9
2023-04-18T12:45:29.916Z,9
2023-04-18T12:48:29.945Z,9
2023-04-18T12:51:29.935Z,8.9
2023-04-18T12:54:29.963Z,9
2023-04-18T12:57:31.650Z,9
2023-04-18T13:00:30.139Z,9
2023-04-18T13:03:30.157Z,9
2023-04-18T13:06:29.978Z,9
2023-04-18T13:09:29.991Z,9
2023-04-18T13:12:30.009Z,9
2023-04-18T13:15:30.017Z,9
2023-04-18T13:18:30.017Z,9
2023-04-18T13:21:30.048Z,9
2023-04-18T13:24:30.038Z,9
2023-04-18T13:27:30.054Z,9.1
2023-04-18T13:30:30.068Z,9.1
2023-04-18T13:33:30.064Z,9.1
2023-04-18T13:36:30.071Z,9.1
2023-04-18T13:39:30.093Z,9.1
2023-04-18T13:42:30.094Z,9.1
2023-04-18T13:45:30.107Z,9.1
2023-04-18T13:48:30.106Z,9.1
2023-04-18T13:51:30.111Z,9.1
2023-04-18T13:54:30.119Z,9.1
2023-04-18T13:57:30.147Z,9.1
2023-04-18T14:00:30.147Z,9.1
2023-04-18T14:03:30.512Z,9.1
2023-04-18T14:06:30.152Z,9.1
2023-04-18T14:09:30.166Z,9.1
2023-04-18T14:12:30.185Z,9.1
2023-04-18T14:15:30.233Z,9.1
2023-04-18T14:18:30.209Z,9.1
2023-04-18T14:21:30.215Z,9.1
2023-04-18T14:24:30.233Z,9.1
2023-04-18T14:27:30.229Z,9.1
2023-04-18T14:30:30.246Z,9.2
2023-04-18T14:33:30.266Z,9.2
2023-04-18T14:36:30.273Z,9.2
2023-04-18T14:39:30.283Z,9.2
2023-04-18T14:42:30.302Z,9.2
2023-04-18T14:45:30.315Z,9.2
2023-04-18T14:48:30.322Z,9.2
2023-04-18T14:51:30.326Z,9.2
2023-04-18T14:54:32.122Z,9.2
2023-04-18T14:57:30.346Z,9.2
2023-04-18T15:00:30.356Z,9.2
2023-04-18T15:03:30.463Z,9.3
2023-04-18T15:06:30.359Z,9.3
2023-04-18T15:09:30.366Z,9.3
2023-04-18T15:12:30.369Z,9.3
2023-04-18T15:15:30.379Z,9.3
2023-04-18T15:18:30.387Z,9.3
2023-04-18T15:21:30.389Z,9.3
2023-04-18T15:24:30.401Z,9.3
2023-04-18T15:27:30.406Z,9.3
2023-04-18T15:30:30.404Z,9.3
2023-04-18T15:33:30.414Z,9.3
2023-04-18T15:36:30.414Z,9.3
2023-04-18T15:39:30.420Z,9.3
2023-04-18T15:42:30.422Z,9.3
2023-04-18T15:45:30.443Z,9.3
2023-04-18T15:48:30.428Z,9.3
2023-04-18T15:51:30.446Z,9.3
2023-04-18T15:54:30.453Z,9.3
2023-04-18T15:57:30.491Z,9.3
2023-04-18T16:00:30.491Z,9.3
2023-04-18T16:03:30.572Z,9.3
2023-04-18T16:06:30.444Z,9.3
2023-04-18T16:09:30.460Z,9.4
2023-04-18T16:12:30.488Z,9.3
2023-04-18T16:15:30.558Z,9.4
2023-04-18T16:18:30.476Z,9.4
2023-04-18T16:21:30.528Z,9.4
2023-04-18T16:24:30.536Z,9.4
2023-04-18T16:27:30.519Z,9.4
2023-04-18T16:30:30.515Z,9.4
2023-04-18T16:33:30.610Z,9.4
2023-04-18T16:36:30.524Z,9.4
2023-04-18T16:39:30.566Z,9.4
2023-04-18T16:42:30.531Z,9.4
2023-04-18T16:45:30.557Z,9.4
2023-04-18T16:48:30.585Z,9.4
2023-04-18T16:51:30.644Z,9.4
2023-04-18T16:54:30.539Z,9.4
2023-04-18T16:57:30.585Z,9.4
2023-04-18T17:00:30.582Z,9.4
2023-04-18T17:03:30.715Z,9.4
2023-04-18T17:06:31.492Z,9.4
2023-04-18T17:09:30.590Z,9.4
2023-04-18T17:12:30.582Z,9.4
2023-04-18T17:15:30.634Z,9.4
2023-04-18T17:18:30.618Z,9.4
2023-04-18T17:21:30.581Z,9.4
2023-04-18T17:24:30.603Z,9.4
2023-04-18T17:27:30.628Z,9.5
2023-04-18T17:30:30.718Z,9.5
2023-04-18T17:33:30.688Z,9.5
2023-04-18T17:36:30.587Z,9.5
2023-04-18T17:39:30.596Z,9.5
2023-04-18T17:42:30.598Z,9.5
2023-04-18T17:45:30.606Z,9.5
2023-04-18T17:48:30.613Z,9.5
2023-04-18T17:51:30.613Z,9.5
2023-04-18T17:54:30.618Z,9.5
2023-04-18T17:57:30.637Z,9.5
2023-04-18T18:00:30.627Z,9.5
2023-04-18T18:03:30.742Z,9.5
2023-04-18T18:06:30.642Z,9.5
2023-04-18T18:09:30.648Z,9.6
2023-04-18T18:12:30.659Z,9.5
2023-04-18T18:15:30.656Z,9.5
2023-04-18T18:18:30.680Z,9.5
2023-04-18T18:21:30.659Z,9.6
2023-04-18T18:24:30.686Z,9.6
2023-04-18T18:27:30.676Z,9.6
2023-04-18T18:30:30.683Z,9.6
2023-04-18T18:33:30.677Z,9.6
2023-04-18T18:36:30.688Z,9.6
2023-04-18T18:39:30.686Z,9.6
2023-04-18T18:42:30.694Z,9.6
2023-04-18T18:45:30.708Z,9.6
2023-04-18T18:48:30.709Z,9.6
2023-04-18T18:51:30.716Z,9.6
2023-04-18T18:54:30.714Z,9.6
2023-04-18T18:57:30.728Z,9.6
2023-04-18T19:00:30.732Z,9.6
2023-04-18T19:03:30.852Z,9.6
2023-04-18T19:06:30.740Z,9.6
2023-04-18T19:09:30.745Z,9.6
2023-04-18T19:12:30.764Z,9.6
2023-04-18T19:15:30.759Z,9.6
2023-04-18T19:18:30.767Z,9.6
2023-04-18T19:21:30.761Z,9.6
2023-04-18T19:24:30.770Z,9.6
2023-04-18T19:27:30.776Z,9.6
2023-04-18T19:30:30.783Z,9.6
2023-04-18T19:33:30.777Z,9.6
2023-04-18T19:36:30.820Z,9.6
2023-04-18T19:39:30.799Z,9.6
2023-04-18T19:42:30.854Z,9.6
2023-04-18T19:45:30.898Z,9.6
2023-04-18T19:48:30.898Z,9.6
2023-04-18T19:51:30.898Z,9.6
2023-04-18T19:54:30.890Z,9.6
2023-04-18T19:57:30.890Z,9.6
2023-04-18T20:00:30.900Z,9.6
2023-04-18T20:03:30.963Z,9.6
2023-04-18T20:06:30.904Z,9.6
2023-04-18T20:09:30.907Z,9.6
2023-04-18T20:12:30.905Z,9.6
2023-04-18T20:15:30.935Z,9.6
2023-04-18T20:18:30.899Z,9.6
2023-04-18T20:21:30.902Z,9.6
2023-04-18T20:24:30.914Z,9.6
2023-04-18T20:27:30.906Z,9.6
2023-04-18T20:30:30.924Z,9.6
2023-04-18T20:33:30.909Z,9.6
2023-04-18T20:36:30.977Z,9.6
2023-04-18T20:39:30.911Z,9.6
2023-04-18T20:42:30.913Z,9.6
2023-04-18T20:45:30.914Z,9.6
2023-04-18T20:48:30.923Z,9.6
2023-04-18T20:51:30.932Z,9.6
2023-04-18T20:54:30.922Z,9.6
2023-04-18T20:57:30.923Z,9.6
2023-04-18T21:00:30.929Z,9.6
2023-04-18T21:03:31.087Z,9.6
2023-04-18T21:06:30.951Z,9.6
2023-04-18T21:09:30.935Z,9.6
2023-04-18T21:12:30.919Z,9.6
2023-04-18T21:15:30.926Z,9.6
2023-04-18T21:18:30.926Z,9.6
2023-04-18T21:21:30.940Z,9.6
2023-04-18T21:24:30.925Z,9.6
2023-04-18T21:27:30.929Z,9.6
2023-04-18T21:30:30.931Z,9.6
2023-04-18T21:33:30.933Z,9.6
2023-04-18T21:36:30.968Z,9.6
2023-04-18T21:39:30.946Z,9.6
2023-04-18T21:42:30.929Z,9.6
2023-04-18T21:45:30.958Z,9.6
2023-04-18T21:48:30.948Z,9.6
2023-04-18T21:51:30.953Z,9.6
2023-04-18T21:54:30.943Z,9.6
2023-04-18T21:57:30.937Z,9.6
2023-04-18T22:00:30.946Z,9.6
2023-04-18T22:03:31.077Z,9.6
2023-04-18T22:06:30.962Z,9.6
2023-04-18T22:09:30.966Z,9.6
2023-04-18T22:12:30.952Z,9.6
2023-04-18T22:15:30.964Z,9.6
2023-04-18T22:18:30.957Z,9.6
2023-04-18T22:21:30.959Z,9.6
2023-04-18T22:24:30.966Z,9.6
2023-04-18T22:27:31.012Z,9.6
2023-04-18T22:30:30.989Z,9.6
2023-04-18T22:33:30.983Z,9.6
2023-04-18T22:36:30.976Z,9.6
2023-04-18T22:39:30.982Z,9.6
2023-04-18T22:42:31.639Z,9.6
2023-04-18T22:45:31.014Z,9.6
2023-04-18T22:48:30.994Z,9.6
2023-04-18T22:51:31.004Z,9.6
2023-04-18T22:54:31.012Z,9.6
2023-04-18T22:57:31.013Z,9.6
2023-04-18T23:00:31.022Z,9.6
2023-04-18T23:03:31.097Z,9.6
2023-04-18T23:06:31.045Z,9.6
2023-04-18T23:09:31.050Z,9.6
2023-04-18T23:12:31.056Z,9.6
2023-04-18T23:15:31.086Z,9.6
2023-04-18T23:18:31.060Z,9.6
2023-04-18T23:21:31.070Z,9.6
2023-04-18T23:24:31.092Z,9.6
2023-04-18T23:27:31.088Z,9.6
2023-04-18T23:30:31.097Z,9.6
2023-04-18T23:33:31.113Z,9.6
2023-04-18T23:36:31.095Z,9.6
2023-04-18T23:39:31.114Z,9.6
2023-04-18T23:42:31.128Z,9.6
2023-04-18T23:45:31.133Z,9.6
2023-04-18T23:48:31.132Z,9.6
2023-04-18T23:51:31.143Z,9.6
2023-04-18T23:54:31.162Z,9.6
2023-04-18T23:57:31.168Z,9.6
